createdAt,value
2023-12-09T00:00:21.253Z,26.27
2023-12-09T00:02:47.645Z,25.40
2023-12-09T00:05:14.168Z,25.75
2023-12-09T00:07:40.566Z,26.95
2023-12-09T00:10:07.387Z,28.55
2023-12-09T00:12:34.024Z,28.10
2023-12-09T00:15:00.521Z,29.55
2023-12-09T00:17:27.298Z,27.20
2023-12-09T00:19:53.773Z,27.05
2023-12-09T00:22:20.192Z,28.23
2023-12-09T00:24:46.608Z,26.95
2023-12-09T00:27:13.016Z,27.98
2023-12-09T00:29:39.426Z,28.75
2023-12-09T00:32:06.244Z,28.55
2023-12-09T00:34:32.774Z,26.40
2023-12-09T00:36:59.137Z,26.08
2023-12-09T00:39:25.557Z,27.70
2023-12-09T00:41:51.972Z,26.67
2023-12-09T00:44:21.978Z,24.27
2023-12-09T00:46:48.373Z,25.35
2023-12-09T00:49:15.459Z,25.58
2023-12-09T00:51:41.868Z,26.63
2023-12-09T00:54:08.272Z,26.52
2023-12-09T00:56:35.630Z,24.65
2023-12-09T00:59:03.359Z,26.38
2023-12-09T01:01:29.784Z,26.17
2023-12-09T01:03:56.286Z,25.02
2023-12-09T01:06:22.770Z,26.13
2023-12-09T01:08:51.794Z,24.15
2023-12-09T01:11:18.344Z,25.23
2023-12-09T01:13:44.773Z,24.63
2023-12-09T01:16:11.570Z,25.88
2023-12-09T01:18:38.046Z,26.45
2023-12-09T01:21:04.885Z,27.15
2023-12-09T01:23:31.609Z,24.23
2023-12-09T01:25:57.975Z,24.25
2023-12-09T01:28:24.349Z,23.95
2023-12-09T01:30:50.716Z,27.50
2023-12-09T01:33:17.237Z,25.63
2023-12-09T01:35:43.713Z,25.83
2023-12-09T01:38:10.118Z,25.80
2023-12-09T01:40:36.818Z,27.13
2023-12-09T01:43:03.209Z,26.60
2023-12-09T01:45:29.619Z,28.27
2023-12-09T01:47:56.208Z,24.67
2023-12-09T01:50:22.777Z,25.48
2023-12-09T01:52:49.262Z,26.80
2023-12-09T01:55:16.394Z,24.42
2023-12-09T01:57:43.383Z,24.65
2023-12-09T02:00:12.183Z,23.55
2023-12-09T02:02:38.735Z,23.92
2023-12-09T02:05:06.224Z,25.00
2023-12-09T02:07:32.739Z,23.98
2023-12-09T02:09:59.297Z,25.33
2023-12-09T02:12:36.364Z,24.38
2023-12-09T02:15:24.838Z,23.52
2023-12-09T02:17:55.158Z,22.40
2023-12-09T02:20:22.082Z,23.27
2023-12-09T02:22:48.525Z,24.65
2023-12-09T02:25:15.018Z,23.50
2023-12-09T02:27:50.616Z,23.40
2023-12-09T02:30:26.552Z,21.58
2023-12-09T02:32:56.497Z,22.75
2023-12-09T02:35:25.262Z,23.08
2023-12-09T02:37:53.225Z,23.42
2023-12-09T02:40:20.318Z,22.83
2023-12-09T02:42:48.001Z,23.33
2023-12-09T02:45:14.437Z,23.10
2023-12-09T02:47:40.848Z,24.85
2023-12-09T02:50:07.500Z,22.27
2023-12-09T02:52:33.923Z,23.45
2023-12-09T02:55:00.358Z,23.02
2023-12-09T02:57:26.855Z,21.45
2023-12-09T02:59:53.324Z,22.42
2023-12-09T03:02:19.800Z,22.35
2023-12-09T03:04:46.212Z,22.13
2023-12-09T03:07:12.764Z,22.73
2023-12-09T03:09:39.167Z,23.90
2023-12-09T03:12:06.045Z,23.40
2023-12-09T03:14:32.503Z,22.88
2023-12-09T03:16:58.871Z,22.98
2023-12-09T03:19:25.403Z,21.73
2023-12-09T03:21:51.815Z,21.67
2023-12-09T03:24:18.292Z,22.05
2023-12-09T03:26:44.670Z,21.20
2023-12-09T03:29:11.051Z,21.88
2023-12-09T03:31:41.171Z,24.23
2023-12-09T03:34:07.640Z,23.83
2023-12-09T03:36:35.999Z,23.80
2023-12-09T03:39:02.510Z,25.08
2023-12-09T03:41:28.919Z,23.02
2023-12-09T03:43:55.279Z,24.00
2023-12-09T03:46:21.704Z,22.02
2023-12-09T03:48:48.296Z,22.98
2023-12-09T03:51:14.861Z,23.05
2023-12-09T03:53:44.753Z,23.52
2023-12-09T03:56:14.582Z,22.35
2023-12-09T03:58:41.332Z,22.58
2023-12-09T04:01:08.055Z,23.20
2023-12-09T04:03:34.661Z,23.08
2023-12-09T04:06:02.391Z,22.92
2023-12-09T04:08:28.864Z,20.75
2023-12-09T04:10:55.261Z,21.52
2023-12-09T04:13:21.826Z,22.75
2023-12-09T04:15:48.263Z,21.90
2023-12-09T04:18:14.952Z,21.90
2023-12-09T04:20:41.682Z,22.38
2023-12-09T04:23:08.163Z,23.00
2023-12-09T04:25:34.540Z,23.08
2023-12-09T04:28:01.023Z,23.02
2023-12-09T04:30:27.403Z,22.90
2023-12-09T04:32:53.956Z,24.30
2023-12-09T04:35:20.394Z,23.17
2023-12-09T04:37:46.811Z,24.35
2023-12-09T04:40:15.184Z,24.17
2023-12-09T04:42:42.974Z,24.73
2023-12-09T04:45:09.912Z,23.05
2023-12-09T04:47:37.992Z,23.83
2023-12-09T04:50:05.831Z,21.73
2023-12-09T04:52:32.208Z,23.38
2023-12-09T04:54:58.613Z,23.55
2023-12-09T04:57:25.330Z,22.10
2023-12-09T04:59:51.817Z,23.35
2023-12-09T05:02:21.589Z,21.92
2023-12-09T05:04:48.107Z,21.85
2023-12-09T05:07:15.405Z,21.95
2023-12-09T05:09:42.147Z,21.63
2023-12-09T05:12:08.707Z,21.73
2023-12-09T05:14:35.094Z,20.75
2023-12-09T05:17:01.968Z,20.33
2023-12-09T05:19:28.441Z,20.75
2023-12-09T05:21:54.985Z,20.42
2023-12-09T05:24:21.476Z,20.88
2023-12-09T05:26:48.046Z,19.20
2023-12-09T05:29:14.433Z,20.60
2023-12-09T05:31:41.852Z,20.13
2023-12-09T05:34:09.328Z,19.02
2023-12-09T05:36:37.858Z,20.40
2023-12-09T05:39:04.698Z,19.80
2023-12-09T05:41:31.120Z,20.60
2023-12-09T05:43:57.494Z,20.67
2023-12-09T05:46:23.878Z,19.95
2023-12-09T05:48:50.701Z,19.50
2023-12-09T05:51:17.326Z,19.90
2023-12-09T05:53:43.771Z,19.05
2023-12-09T05:56:11.170Z,19.25
2023-12-09T05:58:38.384Z,19.23
2023-12-09T06:01:04.953Z,20.55
2023-12-09T06:03:31.423Z,19.08
2023-12-09T06:05:58.877Z,20.10
2023-12-09T06:08:25.475Z,19.50
2023-12-09T06:10:52.437Z,19.50
2023-12-09T06:13:18.862Z,18.80
2023-12-09T06:15:46.933Z,19.27
2023-12-09T06:18:14.648Z,19.50
2023-12-09T06:20:41.176Z,18.30
2023-12-09T06:23:07.579Z,19.13
2023-12-09T06:25:33.951Z,21.00
2023-12-09T06:28:01.055Z,20.77
2023-12-09T06:30:27.478Z,20.33
2023-12-09T06:32:54.213Z,19.48
2023-12-09T06:35:20.720Z,19.95
2023-12-09T06:37:47.107Z,22.23
2023-12-09T06:40:13.667Z,27.52
2023-12-09T06:42:40.062Z,25.60
2023-12-09T06:45:07.096Z,22.20
2023-12-09T06:47:33.694Z,22.73
2023-12-09T06:50:00.212Z,21.33
2023-12-09T06:52:26.849Z,21.17
2023-12-09T06:54:53.538Z,22.40
2023-12-09T06:57:19.928Z,23.65
2023-12-09T06:59:46.305Z,22.13
2023-12-09T07:02:12.700Z,26.60
2023-12-09T07:04:39.524Z,22.90
2023-12-09T07:07:08.654Z,22.13
2023-12-09T07:09:37.869Z,21.33
2023-12-09T07:12:04.705Z,21.17
2023-12-09T07:14:31.151Z,19.05
2023-12-09T07:16:57.993Z,19.48
2023-12-09T07:19:24.441Z,21.17
2023-12-09T07:21:52.256Z,20.00
2023-12-09T07:24:19.000Z,19.20
2023-12-09T07:26:45.405Z,20.13
2023-12-09T07:29:11.785Z,20.20
2023-12-09T07:31:38.346Z,20.27
2023-12-09T07:34:04.822Z,21.20
2023-12-09T07:36:31.379Z,20.50
2023-12-09T07:38:57.792Z,20.13
2023-12-09T07:41:24.170Z,20.35
2023-12-09T07:43:50.606Z,21.08
2023-12-09T07:46:17.046Z,19.10
2023-12-09T07:48:43.561Z,18.55
2023-12-09T07:51:10.132Z,19.75
2023-12-09T07:53:36.547Z,18.02
2023-12-09T07:56:03.011Z,19.58
2023-12-09T07:58:29.427Z,19.33
2023-12-09T08:00:56.024Z,18.67
2023-12-09T08:03:22.519Z,18.50
2023-12-09T08:05:49.025Z,19.23
2023-12-09T08:08:15.537Z,19.13
2023-12-09T08:10:42.038Z,19.77
2023-12-09T08:13:09.808Z,18.67
2023-12-09T08:15:36.529Z,19.35
2023-12-09T08:18:04.760Z,18.98
2023-12-09T08:20:31.315Z,17.67
2023-12-09T08:22:57.799Z,19.10
2023-12-09T08:25:24.194Z,18.75
2023-12-09T08:27:50.617Z,19.10
2023-12-09T08:30:17.021Z,18.67
2023-12-09T08:32:44.695Z,20.02
2023-12-09T08:35:12.063Z,19.85
2023-12-09T08:37:39.785Z,21.30
2023-12-09T08:40:11.543Z,18.83
2023-12-09T08:42:41.989Z,17.63
2023-12-09T08:45:13.054Z,18.98
2023-12-09T08:47:42.853Z,18.75
2023-12-09T08:50:21.897Z,18.00
2023-12-09T08:52:51.986Z,19.13
2023-12-09T08:55:18.758Z,19.33
2023-12-09T08:57:46.269Z,20.33
2023-12-09T09:00:14.970Z,19.77
2023-12-09T09:02:41.528Z,20.75
2023-12-09T09:05:08.507Z,20.75
2023-12-09T09:07:39.951Z,19.40
2023-12-09T09:10:07.428Z,22.77
2023-12-09T09:12:34.065Z,19.95
2023-12-09T09:15:04.595Z,20.85
2023-12-09T09:17:33.482Z,21.25
2023-12-09T09:19:59.941Z,20.15
2023-12-09T09:22:26.985Z,19.40
2023-12-09T09:24:53.580Z,20.38
2023-12-09T09:27:20.076Z,22.13
2023-12-09T09:29:47.787Z,19.80
2023-12-09T09:32:14.334Z,20.20
2023-12-09T09:34:42.720Z,20.88
2023-12-09T09:37:09.788Z,20.17
2023-12-09T09:39:36.433Z,18.75
2023-12-09T09:42:30.843Z,20.02
2023-12-09T09:47:38.103Z,17.38
2023-12-09T09:50:09.622Z,18.42
2023-12-09T09:52:38.050Z,17.42
2023-12-09T09:55:07.612Z,18.95
2023-12-09T09:57:35.624Z,16.45
2023-12-09T10:00:02.650Z,17.08
2023-12-09T10:02:29.508Z,18.00
2023-12-09T10:04:56.329Z,19.77
2023-12-09T10:07:23.664Z,19.10
2023-12-09T10:09:51.027Z,17.35
2023-12-09T10:12:17.544Z,19.88
2023-12-09T10:14:44.339Z,19.45
2023-12-09T10:17:11.023Z,22.08
2023-12-09T10:19:37.892Z,20.95
2023-12-09T10:22:14.282Z,19.50
2023-12-09T10:24:49.898Z,19.67
2023-12-09T10:27:19.947Z,20.02
2023-12-09T10:30:20.163Z,21.70
2023-12-09T10:32:48.264Z,24.08
2023-12-09T10:35:17.954Z,23.70
2023-12-09T10:38:19.700Z,26.08
2023-12-09T10:40:51.273Z,24.73
2023-12-09T10:43:18.473Z,26.52
2023-12-09T10:45:45.037Z,26.50
2023-12-09T10:48:11.659Z,28.10
2023-12-09T10:50:41.162Z,28.70
2023-12-09T10:53:07.819Z,25.33
2023-12-09T10:55:34.359Z,26.88
2023-12-09T10:58:01.476Z,25.08
2023-12-09T11:00:31.341Z,26.55
2023-12-09T11:03:02.831Z,25.73
2023-12-09T11:05:30.294Z,26.77
2023-12-09T11:07:58.737Z,29.08
2023-12-09T11:10:25.457Z,26.10
2023-12-09T11:12:51.927Z,23.70
2023-12-09T11:15:29.524Z,26.40
2023-12-09T11:17:56.839Z,24.10
2023-12-09T11:20:26.070Z,25.55
2023-12-09T11:22:55.311Z,26.42
2023-12-09T11:25:23.830Z,26.33
2023-12-09T11:27:52.167Z,28.10
2023-12-09T11:30:38.438Z,27.17
2023-12-09T11:33:06.118Z,27.85
2023-12-09T11:35:36.833Z,30.08
2023-12-09T11:38:06.402Z,23.13
2023-12-09T11:40:33.912Z,27.50
2023-12-09T11:43:02.448Z,24.98
2023-12-09T11:45:30.867Z,25.95
2023-12-09T11:48:20.077Z,25.50
2023-12-09T11:50:48.353Z,26.90
2023-12-09T11:53:16.026Z,28.77
2023-12-09T11:55:42.582Z,24.40
2023-12-09T11:58:14.361Z,27.35
2023-12-09T12:01:08.456Z,27.45
2023-12-09T12:03:35.512Z,27.10
2023-12-09T12:06:04.632Z,24.15
2023-12-09T12:08:31.235Z,26.75
2023-12-09T12:10:57.945Z,26.02
2023-12-09T12:13:27.110Z,31.75
2023-12-09T12:15:56.101Z,27.73
2023-12-09T12:18:25.805Z,27.77
2023-12-09T12:20:52.507Z,31.20
2023-12-09T12:23:29.970Z,33.20
2023-12-09T12:26:00.006Z,32.13
2023-12-09T12:28:27.146Z,32.40
2023-12-09T12:30:55.912Z,34.58
2023-12-09T12:33:23.722Z,31.10
2023-12-09T12:35:54.521Z,30.60
2023-12-09T12:38:25.023Z,31.75
2023-12-09T12:40:52.593Z,28.95
2023-12-09T12:43:20.221Z,28.58
2023-12-09T12:45:51.649Z,28.02
2023-12-09T12:48:19.096Z,28.00
2023-12-09T12:50:49.172Z,28.42
2023-12-09T12:53:18.765Z,28.05
2023-12-09T12:55:45.862Z,28.00
2023-12-09T12:58:12.573Z,26.52
2023-12-09T13:00:40.183Z,26.40
2023-12-09T13:03:08.305Z,26.55
2023-12-09T13:05:35.737Z,26.42
2023-12-09T13:08:02.421Z,27.50
2023-12-09T13:10:28.781Z,26.45
2023-12-09T13:12:56.041Z,27.08
2023-12-09T13:15:22.662Z,25.48
2023-12-09T13:17:51.007Z,27.63
2023-12-09T13:20:17.851Z,28.88
2023-12-09T13:22:46.825Z,27.17
2023-12-09T13:25:15.019Z,25.50
2023-12-09T13:27:43.047Z,25.20
2023-12-09T13:30:10.419Z,26.75
2023-12-09T13:32:42.257Z,26.17
2023-12-09T13:35:11.759Z,26.17
2023-12-09T13:37:39.425Z,25.17
2023-12-09T13:40:11.250Z,25.85
2023-12-09T13:42:38.834Z,28.52
2023-12-09T13:45:06.790Z,29.05
2023-12-09T13:47:33.425Z,31.10
2023-12-09T13:50:15.248Z,30.17
2023-12-09T13:52:42.544Z,28.75
2023-12-09T13:55:12.065Z,30.63
2023-12-09T13:57:40.931Z,30.25
2023-12-09T14:00:09.381Z,31.20
2023-12-09T14:02:41.431Z,32.50
2023-12-09T14:05:14.849Z,32.28
2023-12-09T14:07:45.600Z,33.38
2023-12-09T14:10:13.767Z,31.80
2023-12-09T14:12:45.044Z,34.38
2023-12-09T14:15:15.200Z,35.67
2023-12-09T14:17:43.559Z,38.15
2023-12-09T14:20:16.842Z,39.72
2023-12-09T14:22:47.023Z,43.58
2023-12-09T14:25:14.077Z,39.65
2023-12-09T14:27:43.825Z,38.45
2023-12-09T14:30:12.701Z,44.30
2023-12-09T14:32:39.851Z,46.95
2023-12-09T14:35:09.306Z,47.47
2023-12-09T14:37:36.913Z,47.30
2023-12-09T14:40:06.179Z,58.53
2023-12-09T14:42:33.075Z,42.30
2023-12-09T14:44:59.488Z,44.53
2023-12-09T14:47:28.271Z,45.15
2023-12-09T14:49:54.889Z,47.85
2023-12-09T14:52:22.752Z,45.05
2023-12-09T14:54:49.275Z,46.67
2023-12-09T14:57:16.614Z,47.03
2023-12-09T14:59:43.298Z,46.45
2023-12-09T15:02:18.978Z,48.80
2023-12-09T15:04:47.851Z,41.60
2023-12-09T15:07:14.405Z,52.28
2023-12-09T15:09:40.932Z,45.13
2023-12-09T15:12:07.495Z,47.70
2023-12-09T15:14:33.985Z,49.50
2023-12-09T15:17:00.602Z,50.83
2023-12-09T15:19:27.111Z,47.45
2023-12-09T15:21:53.771Z,48.38
2023-12-09T15:24:35.094Z,51.15
2023-12-09T15:27:06.914Z,47.78
2023-12-09T15:29:33.566Z,48.85
2023-12-09T15:32:00.150Z,49.83
2023-12-09T15:34:31.761Z,52.25
2023-12-09T15:36:58.928Z,49.20
2023-12-09T15:39:26.787Z,47.38
2023-12-09T15:41:53.491Z,50.55
2023-12-09T15:44:21.069Z,51.92
2023-12-09T15:46:51.744Z,54.17
2023-12-09T15:49:18.329Z,50.88
2023-12-09T15:51:47.537Z,54.70
2023-12-09T15:54:15.460Z,50.72
2023-12-09T15:56:45.077Z,47.03
2023-12-09T15:59:13.784Z,54.40
2023-12-09T16:01:40.595Z,54.13
2023-12-09T16:04:08.804Z,49.58
2023-12-09T16:06:35.396Z,47.90
2023-12-09T16:09:04.694Z,52.45
2023-12-09T16:11:32.567Z,47.67
2023-12-09T16:13:59.042Z,52.22
2023-12-09T16:16:25.747Z,53.85
2023-12-09T16:18:55.729Z,51.17
2023-12-09T16:21:23.319Z,53.05
2023-12-09T16:23:50.206Z,51.65
2023-12-09T16:26:17.074Z,53.28
2023-12-09T16:28:45.508Z,51.30
2023-12-09T16:31:14.988Z,51.33
2023-12-09T16:33:41.732Z,50.58
2023-12-09T16:36:09.204Z,49.40
2023-12-09T16:38:35.800Z,50.92
2023-12-09T16:41:02.747Z,52.03
2023-12-09T16:43:29.179Z,51.10
2023-12-09T16:45:56.437Z,50.50
2023-12-09T16:48:23.364Z,52.47
2023-12-09T16:50:49.900Z,53.55
2023-12-09T16:53:18.966Z,52.50
2023-12-09T16:55:45.883Z,51.65
2023-12-09T16:58:12.960Z,59.75
2023-12-09T17:00:39.575Z,65.93
2023-12-09T17:03:06.140Z,73.07
2023-12-09T17:05:32.877Z,78.50
2023-12-09T17:07:59.440Z,94.82
2023-12-09T17:10:25.905Z,121.85
2023-12-09T17:12:53.473Z,104.43
2023-12-09T17:15:20.325Z,110.13
2023-12-09T17:17:50.061Z,107.72
2023-12-09T17:20:17.104Z,105.65
2023-12-09T17:22:49.351Z,117.38
2023-12-09T17:25:17.852Z,112.63
2023-12-09T17:27:44.760Z,116.60
2023-12-09T17:33:57.499Z,74.03
2023-12-09T17:36:28.938Z,129.15
2023-12-09T17:38:56.018Z,245.10
2023-12-09T17:41:23.040Z,210.70
2023-12-09T17:43:49.970Z,277.20
2023-12-09T17:46:17.488Z,301.52
2023-12-09T17:48:46.234Z,365.48
2023-12-09T17:51:12.818Z,525.35
2023-12-09T17:53:39.307Z,553.90
2023-12-09T17:56:08.458Z,548.42
2023-12-09T17:58:34.969Z,632.17
2023-12-09T18:01:01.712Z,666.70
2023-12-09T18:03:28.316Z,656.13
2023-12-09T18:05:55.640Z,713.67
2023-12-09T18:08:31.180Z,799.03
2023-12-09T18:13:52.310Z,663.38
2023-12-09T18:20:06.204Z,698.50
2023-12-09T18:22:41.245Z,913.10
2023-12-09T18:25:25.806Z,965.97
2023-12-09T18:27:57.246Z,913.60
2023-12-09T18:30:29.415Z,988.80
2023-12-09T18:32:56.953Z,932.17
2023-12-09T18:35:23.513Z,890.10
2023-12-09T18:37:50.419Z,885.80
2023-12-09T18:40:17.126Z,872.95
2023-12-09T18:42:43.850Z,884.05
2023-12-09T18:45:10.399Z,906.55
2023-12-09T18:47:37.338Z,872.38
2023-12-09T18:52:31.633Z,985.03
2023-12-09T18:54:58.146Z,895.70
2023-12-09T18:57:24.918Z,890.63
2023-12-09T18:59:51.684Z,801.78
2023-12-09T19:02:19.543Z,832.97
2023-12-09T19:04:46.239Z,805.58
2023-12-09T19:07:13.502Z,785.08
2023-12-09T19:09:40.398Z,702.08
2023-12-09T19:12:07.404Z,732.17
2023-12-09T19:14:33.879Z,689.78
2023-12-09T19:17:01.142Z,808.67
2023-12-09T19:19:34.167Z,593.80
2023-12-09T19:22:01.131Z,672.83
2023-12-09T19:24:27.863Z,670.03
2023-12-09T19:26:54.355Z,670.20
2023-12-09T19:29:20.986Z,681.10
2023-12-09T19:31:47.727Z,627.53
2023-12-09T19:34:14.302Z,701.63
2023-12-09T19:36:46.085Z,669.00
2023-12-09T19:39:13.294Z,588.58
2023-12-09T19:41:39.802Z,559.25
2023-12-09T19:44:06.372Z,617.28
2023-12-09T19:46:33.024Z,576.47
2023-12-09T19:48:59.572Z,589.33
2023-12-09T19:51:26.276Z,592.15
2023-12-09T19:53:52.844Z,482.20
2023-12-09T19:56:19.360Z,653.50
2023-12-09T19:58:46.209Z,585.15
2023-12-09T20:01:12.737Z,659.17
2023-12-09T20:03:39.560Z,600.95
2023-12-09T20:06:07.101Z,525.40
2023-12-09T20:08:33.751Z,616.47
2023-12-09T20:11:00.776Z,499.67
2023-12-09T20:13:27.376Z,481.55
2023-12-09T20:15:54.162Z,493.00
2023-12-09T20:18:20.950Z,488.05
2023-12-09T20:20:47.800Z,343.48
2023-12-09T20:23:14.791Z,131.75
2023-12-09T20:25:41.278Z,120.15
2023-12-09T20:28:08.003Z,77.22
2023-12-09T20:30:39.188Z,74.22
2023-12-09T20:33:07.575Z,137.20
2023-12-09T20:35:34.438Z,83.40
2023-12-09T20:38:02.648Z,75.03
2023-12-09T20:40:29.300Z,63.22
2023-12-09T20:42:56.072Z,153.82
2023-12-09T20:45:23.102Z,41.90
2023-12-09T20:47:49.689Z,44.83
2023-12-09T20:50:16.565Z,43.35
2023-12-09T20:52:43.009Z,44.33
2023-12-09T20:55:09.825Z,47.88
2023-12-09T20:57:36.447Z,49.25
2023-12-09T21:00:03.795Z,47.50
2023-12-09T21:02:30.794Z,42.85
2023-12-09T21:04:58.148Z,32.92
2023-12-09T21:07:24.706Z,31.40
2023-12-09T21:09:51.461Z,31.17
2023-12-09T21:12:18.129Z,34.40
2023-12-09T21:14:44.695Z,34.58
2023-12-09T21:17:11.094Z,32.03
2023-12-09T21:19:38.478Z,35.13
2023-12-09T21:22:05.318Z,32.20
2023-12-09T21:24:32.337Z,35.50
2023-12-09T21:26:59.053Z,32.75
2023-12-09T21:29:25.768Z,30.63
2023-12-09T21:31:52.404Z,32.67
2023-12-09T21:34:19.228Z,28.88
2023-12-09T21:36:46.338Z,26.27
2023-12-09T21:39:13.133Z,25.73
2023-12-09T21:41:39.842Z,26.02
2023-12-09T21:44:06.491Z,28.55
2023-12-09T21:46:32.945Z,33.80
2023-12-09T21:48:59.915Z,32.75
2023-12-09T21:51:26.690Z,31.77
2023-12-09T21:53:53.137Z,30.77
2023-12-09T21:56:22.173Z,32.95
2023-12-09T21:58:50.128Z,34.10
2023-12-09T22:01:20.497Z,34.00
2023-12-09T22:03:47.797Z,34.85
2023-12-09T22:06:14.617Z,34.85
2023-12-09T22:08:42.593Z,34.63
2023-12-09T22:11:12.978Z,31.33
2023-12-09T22:13:40.378Z,33.85
2023-12-09T22:16:20.905Z,36.65
2023-12-09T22:18:48.926Z,31.58
2023-12-09T22:21:15.829Z,29.10
2023-12-09T22:23:42.480Z,34.00
2023-12-09T22:26:09.152Z,31.83
2023-12-09T22:28:39.839Z,27.65
2023-12-09T22:31:09.132Z,32.88
2023-12-09T22:33:37.309Z,28.23
2023-12-09T22:36:04.024Z,28.60
2023-12-09T22:38:30.398Z,30.17
2023-12-09T22:40:57.010Z,27.65
2023-12-09T22:43:23.459Z,25.10
2023-12-09T22:45:51.470Z,29.60
2023-12-09T22:48:18.219Z,25.15
2023-12-09T22:50:44.749Z,25.08
2023-12-09T22:53:11.150Z,25.75
2023-12-09T22:55:37.633Z,25.15
2023-12-09T22:58:04.083Z,23.88
2023-12-09T23:00:34.334Z,25.27
2023-12-09T23:03:04.041Z,41.60
2023-12-09T23:05:30.627Z,26.05
2023-12-09T23:07:57.207Z,30.27
2023-12-09T23:10:23.806Z,25.13
2023-12-09T23:12:50.352Z,28.00
2023-12-09T23:15:17.335Z,24.00
2023-12-09T23:17:43.816Z,26.27
2023-12-09T23:20:10.590Z,22.33
2023-12-09T23:22:37.070Z,22.27
2023-12-09T23:25:03.857Z,24.67
2023-12-09T23:27:30.330Z,25.02
2023-12-09T23:29:56.776Z,24.45
2023-12-09T23:32:23.441Z,24.38
2023-12-09T23:34:49.980Z,25.92
2023-12-09T23:37:16.453Z,28.35
2023-12-09T23:39:42.909Z,23.40
2023-12-09T23:42:09.340Z,23.90
2023-12-09T23:44:35.760Z,22.13
2023-12-09T23:47:02.289Z,23.00
2023-12-09T23:49:28.767Z,22.52
2023-12-09T23:51:55.294Z,22.08
2023-12-09T23:54:21.784Z,22.17
2023-12-09T23:56:48.154Z,20.30
2023-12-09T23:59:15.035Z,22.00
